Time;durP1;ratioP1;P1;durP2;ratioP2;P2;SDS_P1;SDS_P2;PMS_P1;PMS_P2;Temp;Humidity;BMP_temperature;BMP_pressure;BME280_temperature;BME280_humidity;BME280_pressure;Samples;Min_cycle;Max_cycle;Signal;HPM_P1;HPM_P2
2023/05/25 00:02:17;;;;;;;79.90;2.00;;;16.60;26.10;;;;;;5073237;28;20452;-71
2023/05/25 00:04:47;;;;;;;80.50;2.40;;;16.60;27.60;;;;;;5071600;28;20220;-71
2023/05/25 00:07:12;;;;;;;80.17;2.10;;;16.50;24.90;;;;;;5073235;28;20270;-71
2023/05/25 00:09:39;;;;;;;80.00;2.00;;;16.50;26.00;;;;;;5073151;28;20943;-71
2023/05/25 00:12:06;;;;;;;80.00;2.03;;;16.50;26.70;;;;;;5073202;28;20494;-71
2023/05/25 00:14:31;;;;;;;80.70;2.40;;;16.50;25.60;;;;;;5070946;28;20450;-71
2023/05/25 00:16:57;;;;;;;80.20;2.20;;;16.50;26.00;;;;;;5071762;28;20417;-71
2023/05/25 00:19:23;;;;;;;80.20;2.17;;;16.50;25.50;;;;;;5072616;28;20653;-71
2023/05/25 00:21:49;;;;;;;80.17;2.00;;;16.50;24.70;;;;;;5072504;28;20570;-70
2023/05/25 00:24:15;;;;;;;81.03;2.20;;;16.50;26.00;;;;;;5071909;28;20451;-70
2023/05/25 00:26:41;;;;;;;83.37;3.47;;;16.30;25.60;;;;;;5072695;28;20404;-70
2023/05/25 00:29:06;;;;;;;82.70;2.20;;;16.40;25.00;;;;;;5072467;28;20198;-71
2023/05/25 00:31:34;;;;;;;79.83;1.90;;;16.30;25.50;;;;;;5072529;28;20543;-71
2023/05/25 00:33:59;;;;;;;80.50;2.40;;;16.30;26.30;;;;;;5071718;28;20697;-71
2023/05/25 00:36:25;;;;;;;80.47;2.20;;;16.30;26.20;;;;;;5072529;28;20437;-71
2023/05/25 00:38:51;;;;;;;80.37;2.23;;;16.30;26.10;;;;;;5072407;28;20181;-71
2023/05/25 00:41:17;;;;;;;80.00;2.00;;;16.30;25.40;;;;;;5070935;28;20273;-71
2023/05/25 00:43:46;;;;;;;80.27;2.40;;;16.30;25.60;;;;;;5071689;28;20598;-71
2023/05/25 00:46:14;;;;;;;80.07;2.17;;;16.40;26.50;;;;;;5072685;28;20774;-71
2023/05/25 00:48:41;;;;;;;80.07;2.20;;;16.40;26.00;;;;;;5070772;28;20415;-71
2023/05/25 00:51:09;;;;;;;80.47;2.30;;;16.60;25.70;;;;;;5071013;28;20407;-71
2023/05/25 00:53:36;;;;;;;80.07;2.03;;;16.60;26.20;;;;;;5071646;28;20407;-71
2023/05/25 00:56:14;;;;;;;80.00;2.00;;;16.50;27.50;;;;;;5070380;28;20415;-71
2023/05/25 00:58:42;;;;;;;80.17;2.17;;;16.50;26.90;;;;;;5072119;28;20389;-71
2023/05/25 01:01:11;;;;;;;80.87;2.50;;;16.40;25.60;;;;;;5071914;28;20452;-71
2023/05/25 01:03:41;;;;;;;81.50;2.60;;;16.30;25.60;;;;;;5071241;28;20412;-72
2023/05/25 01:06:12;;;;;;;80.00;2.03;;;16.40;26.20;;;;;;5071952;28;20398;-71
2023/05/25 01:08:41;;;;;;;80.00;2.00;;;16.30;24.60;;;;;;5071951;28;20509;-72
2023/05/25 01:11:10;;;;;;;80.23;2.27;;;16.30;25.30;;;;;;5071984;28;20409;-72
2023/05/25 01:13:37;;;;;;;80.00;2.10;;;16.30;26.50;;;;;;5071041;28;20415;-72
2023/05/25 01:16:05;;;;;;;79.70;1.80;;;16.30;26.10;;;;;;5071929;28;20436;-72
2023/05/25 01:18:32;;;;;;;81.27;2.30;;;16.10;24.80;;;;;;5070801;28;20411;-72
2023/05/25 01:21:19;;;;;;;80.00;1.97;;;16.20;26.10;;;;;;5071558;28;20430;-72
2023/05/25 01:24:08;;;;;;;80.10;2.10;;;16.10;25.70;;;;;;5069694;28;20435;-72
2023/05/25 01:26:41;;;;;;;80.10;2.00;;;16.10;26.30;;;;;;5033904;28;20411;-73
2023/05/25 01:29:08;;;;;;;80.57;2.37;;;15.90;25.50;;;;;;5070558;28;20433;-72
2023/05/25 01:31:35;;;;;;;80.10;2.00;;;15.60;27.70;;;;;;5071377;28;20443;-72
2023/05/25 01:34:01;;;;;;;80.07;1.93;;;15.60;27.70;;;;;;5071033;28;20438;-72
2023/05/25 01:36:26;;;;;;;80.60;2.00;;;15.60;28.60;;;;;;5071255;28;20956;-72
2023/05/25 01:38:52;;;;;;;80.13;2.00;;;15.50;28.40;;;;;;5071555;28;20470;-72
2023/05/25 01:41:18;;;;;;;80.00;1.90;;;15.60;28.60;;;;;;5071435;28;20182;-72
2023/05/25 01:43:44;;;;;;;80.20;2.10;;;15.60;28.70;;;;;;5070784;28;20176;-73
2023/05/25 01:46:53;;;;;;;80.07;1.80;;;15.60;28.00;;;;;;5071578;28;20168;-71
2023/05/25 01:49:36;;;;;;;81.07;2.17;;;15.50;29.60;;;;;;5065214;28;20415;-72
2023/05/25 01:52:11;;;;;;;80.17;2.10;;;15.60;28.60;;;;;;5071792;28;20888;-73
2023/05/25 01:54:46;;;;;;;80.30;2.00;;;15.50;28.60;;;;;;5070863;28;20488;-72
2023/05/25 01:57:14;;;;;;;82.07;3.00;;;15.60;28.10;;;;;;5071415;28;20407;-73
2023/05/25 01:59:44;;;;;;;80.30;2.03;;;15.50;29.00;;;;;;5070091;28;20423;-72
2023/05/25 02:02:12;;;;;;;80.73;2.43;;;15.40;28.50;;;;;;5069743;28;20505;-71
2023/05/25 02:04:37;;;;;;;80.50;2.10;;;15.30;28.60;;;;;;5070451;28;20454;-71
2023/05/25 02:07:03;;;;;;;80.43;2.10;;;15.30;28.40;;;;;;5071327;28;20403;-70
2023/05/25 02:09:29;;;;;;;80.80;2.50;;;15.40;29.30;;;;;;5071049;28;20174;-70
2023/05/25 02:11:55;;;;;;;80.40;1.97;;;15.40;27.80;;;;;;5071560;28;20413;-71
2023/05/25 02:14:21;;;;;;;80.30;1.93;;;15.40;28.10;;;;;;5069201;28;20608;-72
2023/05/25 02:16:47;;;;;;;80.40;2.20;;;15.40;29.40;;;;;;5071178;28;20170;-70
2023/05/25 02:19:13;;;;;;;80.40;2.00;;;15.30;28.00;;;;;;5069721;28;20445;-70
2023/05/25 02:21:40;;;;;;;80.37;2.00;;;15.30;28.10;;;;;;5071041;28;20567;-71
2023/05/25 02:24:08;;;;;;;80.67;2.40;;;15.60;28.20;;;;;;5069097;28;21006;-70
2023/05/25 02:26:34;;;;;;;80.03;1.90;;;15.30;28.00;;;;;;5071308;28;20844;-71
2023/05/25 02:29:00;;;;;;;80.30;2.03;;;15.30;28.10;;;;;;5070887;28;20425;-71
2023/05/25 02:31:26;;;;;;;80.33;1.93;;;15.30;28.70;;;;;;5047384;28;20480;-70
2023/05/25 02:33:52;;;;;;;80.40;2.10;;;15.30;28.80;;;;;;5050083;28;20467;-70
2023/05/25 02:36:18;;;;;;;80.17;1.80;;;15.20;29.50;;;;;;5050860;28;20576;-71
2023/05/25 02:38:45;;;;;;;80.27;1.90;;;15.00;29.80;;;;;;5043676;28;20660;-70
2023/05/25 02:41:11;;;;;;;80.20;1.90;;;15.10;29.80;;;;;;5029548;28;20182;-70
2023/05/25 02:43:37;;;;;;;81.03;2.37;;;15.00;29.40;;;;;;5030241;28;20624;-70
2023/05/25 02:46:03;;;;;;;80.87;2.50;;;15.00;29.00;;;;;;5030955;28;20239;-70
2023/05/25 02:48:29;;;;;;;80.40;2.00;;;14.90;29.40;;;;;;5051073;28;20414;-70
2023/05/25 02:50:55;;;;;;;80.40;1.87;;;14.90;29.70;;;;;;5054204;28;20172;-70
2023/05/25 02:53:20;;;;;;;80.27;1.90;;;14.80;30.30;;;;;;5053872;28;20195;-70
2023/05/25 02:55:46;;;;;;;80.87;2.37;;;14.70;30.30;;;;;;5053983;28;20481;-71
2023/05/25 02:58:11;;;;;;;80.47;2.00;;;14.60;30.40;;;;;;5054505;28;20173;-71
2023/05/25 03:00:38;;;;;;;80.50;1.90;;;14.70;30.30;;;;;;5053029;28;20644;-70
2023/05/25 03:03:03;;;;;;;81.90;2.37;;;14.80;31.00;;;;;;5053565;28;20199;-70
2023/05/25 03:05:29;;;;;;;84.50;2.40;;;14.70;30.30;;;;;;5037464;28;20505;-70
2023/05/25 03:07:55;;;;;;;80.60;1.93;;;14.70;30.40;;;;;;5033323;28;20242;-70
2023/05/25 03:10:20;;;;;;;80.60;1.97;;;14.70;30.70;;;;;;5033845;28;20169;-70
2023/05/25 03:12:46;;;;;;;81.80;2.77;;;14.60;30.60;;;;;;5033444;28;20218;-72
2023/05/25 03:15:12;;;;;;;80.40;1.80;;;14.70;29.90;;;;;;5034177;28;20749;-70
2023/05/25 03:17:38;;;;;;;80.57;2.07;;;14.70;29.90;;;;;;5034235;28;20363;-70
2023/05/25 03:20:05;;;;;;;80.97;2.33;;;14.70;30.60;;;;;;5034696;28;20430;-70
2023/05/25 03:22:30;;;;;;;80.70;2.10;;;14.80;30.60;;;;;;5034015;28;20204;-74
2023/05/25 03:24:58;;;;;;;81.10;2.43;;;14.70;30.00;;;;;;5033394;28;20497;-70
2023/05/25 03:27:24;;;;;;;81.40;2.37;;;14.80;30.60;;;;;;5032753;28;20176;-70
2023/05/25 03:29:50;;;;;;;80.53;1.90;;;14.80;29.70;;;;;;5034032;28;21018;-70
2023/05/25 03:32:16;;;;;;;80.60;1.90;;;14.80;30.80;;;;;;5033601;28;20174;-70
2023/05/25 03:34:41;;;;;;;80.77;2.20;;;14.60;30.30;;;;;;5032737;28;20451;-70
2023/05/25 03:37:07;;;;;;;80.80;2.17;;;14.70;30.40;;;;;;5033580;28;20176;-72
2023/05/25 03:39:32;;;;;;;80.83;2.23;;;14.60;31.20;;;;;;5049319;28;20180;-70
2023/05/25 03:41:58;;;;;;;80.60;1.90;;;14.60;30.80;;;;;;5053312;28;20253;-71
2023/05/25 03:44:24;;;;;;;81.10;2.30;;;14.50;29.80;;;;;;5052683;28;20202;-71
2023/05/25 03:46:50;;;;;;;80.60;1.90;;;14.60;31.20;;;;;;5053517;28;20534;-71
2023/05/25 03:49:15;;;;;;;80.57;1.90;;;14.60;30.80;;;;;;5053758;28;20403;-71
2023/05/25 03:51:42;;;;;;;81.53;2.60;;;14.70;31.30;;;;;;5053603;28;20176;-71
2023/05/25 03:54:07;;;;;;;80.77;2.00;;;14.50;31.50;;;;;;5053086;28;20192;-71
2023/05/25 03:56:33;;;;;;;81.40;2.27;;;14.40;31.10;;;;;;5054158;28;20812;-72
2023/05/25 03:58:59;;;;;;;80.83;1.93;;;14.50;32.20;;;;;;5053466;28;20168;-71
2023/05/25 04:01:25;;;;;;;81.67;2.90;;;14.60;31.70;;;;;;5053700;28;20207;-71
2023/05/25 04:03:51;;;;;;;81.10;2.20;;;14.50;32.10;;;;;;5052603;28;20450;-71
2023/05/25 04:06:18;;;;;;;80.93;2.10;;;14.50;31.50;;;;;;5053688;28;20414;-71
2023/05/25 04:08:44;;;;;;;81.90;2.63;;;14.60;31.80;;;;;;5052183;28;20418;-71
2023/05/25 04:11:10;;;;;;;81.20;2.40;;;14.60;31.90;;;;;;5053308;28;20434;-72
2023/05/25 04:13:38;;;;;;;80.60;1.90;;;14.60;30.30;;;;;;5052958;28;20890;-72
2023/05/25 04:16:05;;;;;;;81.17;2.20;;;14.60;31.20;;;;;;5052945;28;20419;-72
2023/05/25 04:18:32;;;;;;;81.23;2.27;;;14.60;31.50;;;;;;5053882;28;20407;-72
2023/05/25 04:20:58;;;;;;;80.83;2.10;;;14.60;32.30;;;;;;5053714;28;20489;-71
2023/05/25 04:23:23;;;;;;;81.17;2.23;;;14.60;31.10;;;;;;5053155;28;20546;-72
2023/05/25 04:25:50;;;;;;;80.80;2.10;;;14.70;32.20;;;;;;5053037;28;20184;-72
2023/05/25 04:28:16;;;;;;;80.70;1.90;;;14.50;31.20;;;;;;5053484;28;20225;-72
2023/05/25 04:30:42;;;;;;;80.90;2.20;;;14.50;32.30;;;;;;5053129;28;20683;-72
2023/05/25 04:33:10;;;;;;;81.17;2.20;;;14.60;32.40;;;;;;5052864;28;20439;-72
2023/05/25 04:35:36;;;;;;;81.50;2.57;;;14.80;31.20;;;;;;5052634;28;20196;-72
2023/05/25 04:38:03;;;;;;;81.50;2.60;;;14.70;30.40;;;;;;5050070;28;20415;-72
2023/05/25 04:40:31;;;;;;;80.70;2.00;;;14.80;31.20;;;;;;5031720;28;20412;-72
2023/05/25 04:42:57;;;;;;;80.83;2.10;;;14.70;30.30;;;;;;5032653;28;20454;-71
2023/05/25 04:45:23;;;;;;;80.90;2.00;;;14.80;30.40;;;;;;5032641;28;20426;-72
2023/05/25 04:47:49;;;;;;;80.90;2.40;;;14.90;30.60;;;;;;5032274;28;20780;-72
2023/05/25 04:50:15;;;;;;;80.70;2.17;;;15.10;30.60;;;;;;5031353;28;20260;-72
2023/05/25 04:52:41;;;;;;;80.73;1.97;;;15.00;31.90;;;;;;5032180;28;20502;-72
2023/05/25 04:55:07;;;;;;;80.77;2.10;;;14.90;31.40;;;;;;5032488;28;20194;-72
2023/05/25 04:57:33;;;;;;;81.60;2.33;;;14.90;32.10;;;;;;5031443;28;20222;-72
2023/05/25 04:59:58;;;;;;;80.50;1.90;;;15.00;30.80;;;;;;5031020;28;20499;-72
2023/05/25 05:02:25;;;;;;;80.77;2.13;;;15.00;30.10;;;;;;5031794;28;20590;-72
2023/05/25 05:04:53;;;;;;;85.03;2.30;;;15.00;31.50;;;;;;5030705;28;20217;-72
2023/05/25 05:07:22;;;;;;;81.93;2.50;;;15.00;31.80;;;;;;5033031;28;20406;-72
2023/05/25 05:09:48;;;;;;;80.70;2.10;;;15.00;31.30;;;;;;5031884;28;20487;-72
2023/05/25 05:12:13;;;;;;;81.47;2.60;;;15.00;31.90;;;;;;5032294;28;20505;-71
2023/05/25 05:14:39;;;;;;;81.67;2.83;;;14.60;32.00;;;;;;5030546;28;20959;-72
2023/05/25 05:17:05;;;;;;;80.87;2.17;;;14.60;31.60;;;;;;5032296;28;20182;-71
2023/05/25 05:19:31;;;;;;;81.80;2.80;;;14.80;33.20;;;;;;5032305;28;20407;-72
2023/05/25 05:21:57;;;;;;;81.03;2.20;;;15.00;31.90;;;;;;5031942;28;20543;-72
2023/05/25 05:24:23;;;;;;;80.80;2.10;;;15.20;30.90;;;;;;5031485;28;20523;-72
2023/05/25 05:26:49;;;;;;;81.10;2.30;;;15.30;31.60;;;;;;5031880;28;20247;-72
2023/05/25 05:29:15;;;;;;;80.90;2.17;;;15.20;32.00;;;;;;5032298;28;20178;-72
2023/05/25 05:31:41;;;;;;;81.10;2.17;;;15.40;32.20;;;;;;5031618;28;20174;-72
2023/05/25 05:34:07;;;;;;;83.67;2.73;;;15.30;30.90;;;;;;5029814;28;20442;-72
2023/05/25 05:36:32;;;;;;;83.10;2.73;;;15.50;30.60;;;;;;5030088;28;20248;-72
2023/05/25 05:38:59;;;;;;;80.90;2.20;;;15.60;30.20;;;;;;5031666;28;20250;-72
2023/05/25 05:41:24;;;;;;;82.37;3.10;;;15.50;31.40;;;;;;5031553;28;20236;-72
2023/05/25 05:43:50;;;;;;;86.90;2.53;;;15.50;30.10;;;;;;5030680;28;20437;-72
2023/05/25 05:46:16;;;;;;;82.50;2.70;;;15.50;30.80;;;;;;5031560;28;20172;-72
2023/05/25 05:48:41;;;;;;;81.97;2.80;;;15.80;30.20;;;;;;5031361;28;20168;-71
2023/05/25 05:51:07;;;;;;;81.27;2.50;;;16.00;30.00;;;;;;5031346;28;20838;-72
2023/05/25 05:53:34;;;;;;;81.90;2.37;;;16.00;30.10;;;;;;5030593;28;20176;-72
2023/05/25 05:56:00;;;;;;;81.00;2.37;;;16.10;30.20;;;;;;5030147;28;20933;-72
2023/05/25 05:58:26;;;;;;;80.80;2.10;;;16.10;29.60;;;;;;5030026;28;20747;-72
2023/05/25 06:00:53;;;;;;;84.40;2.97;;;16.00;29.70;;;;;;5031600;28;20520;-72
2023/05/25 06:03:19;;;;;;;81.87;2.90;;;16.30;30.10;;;;;;5029370;28;20206;-72
2023/05/25 06:05:45;;;;;;;83.37;2.80;;;16.50;29.80;;;;;;5029880;28;20463;-71
2023/05/25 06:08:10;;;;;;;81.53;2.50;;;16.40;29.70;;;;;;5031279;28;20476;-72
2023/05/25 06:10:37;;;;;;;80.50;2.10;;;16.50;30.00;;;;;;5029930;28;20183;-72
2023/05/25 06:13:03;;;;;;;80.70;2.13;;;16.40;30.00;;;;;;5030391;28;20209;-72
2023/05/25 06:15:28;;;;;;;80.80;2.33;;;16.60;29.50;;;;;;5031038;28;20864;-72
2023/05/25 06:17:54;;;;;;;81.00;2.37;;;16.30;30.60;;;;;;5031142;28;20607;-72
2023/05/25 06:20:19;;;;;;;81.17;2.40;;;16.40;29.90;;;;;;5031489;28;20226;-72
2023/05/25 06:22:45;;;;;;;80.77;2.30;;;16.60;31.40;;;;;;5034093;28;20207;-72
2023/05/25 06:25:11;;;;;;;80.57;2.23;;;16.70;30.30;;;;;;5035145;28;20675;-72
2023/05/25 06:27:36;;;;;;;80.63;2.17;;;16.80;29.50;;;;;;5034797;28;20817;-72
2023/05/25 06:30:02;;;;;;;82.57;2.70;;;16.80;29.50;;;;;;5035064;28;20172;-72
2023/05/25 06:32:28;;;;;;;80.47;2.27;;;17.00;30.70;;;;;;5034648;28;20700;-71
2023/05/25 06:34:53;;;;;;;80.50;2.30;;;17.10;29.10;;;;;;5034651;28;20517;-72
2023/05/25 06:37:19;;;;;;;80.73;2.33;;;16.90;31.50;;;;;;5034915;28;20176;-72
2023/05/25 06:39:44;;;;;;;100.53;2.80;;;17.10;30.00;;;;;;5034757;28;20179;-72
2023/05/25 06:42:10;;;;;;;80.30;2.10;;;17.00;29.00;;;;;;5034732;28;20197;-74
2023/05/25 06:44:36;;;;;;;80.67;2.30;;;17.20;29.90;;;;;;5033988;28;20219;-72
2023/05/25 06:47:02;;;;;;;81.00;2.77;;;17.40;31.00;;;;;;5034903;28;20184;-72
2023/05/25 06:49:28;;;;;;;80.17;2.00;;;17.40;29.50;;;;;;5033443;28;20419;-72
2023/05/25 06:51:53;;;;;;;80.40;2.20;;;17.50;29.30;;;;;;5034668;28;20184;-73
2023/05/25 06:54:19;;;;;;;87.00;2.60;;;17.50;29.80;;;;;;5033695;28;20438;-72
2023/05/25 06:56:45;;;;;;;82.57;2.47;;;17.20;29.30;;;;;;5033360;28;20266;-72
2023/05/25 06:59:11;;;;;;;80.77;2.60;;;16.60;30.40;;;;;;5034630;28;20193;-72
2023/05/25 07:01:36;;;;;;;81.93;2.57;;;17.00;30.50;;;;;;5034481;28;20781;-72
2023/05/25 07:04:02;;;;;;;81.70;2.60;;;17.10;30.00;;;;;;5033843;28;20212;-72
2023/05/25 07:06:28;;;;;;;80.40;2.30;;;17.10;30.00;;;;;;5033326;28;20210;-72
2023/05/25 07:08:56;;;;;;;79.80;1.87;;;17.10;30.30;;;;;;5034161;28;20168;-72
2023/05/25 07:11:22;;;;;;;81.00;2.60;;;17.30;31.20;;;;;;5034494;28;20680;-72
2023/05/25 07:13:47;;;;;;;80.77;2.50;;;17.30;29.90;;;;;;5033512;28;20526;-72
2023/05/25 07:16:13;;;;;;;80.40;2.27;;;17.30;30.30;;;;;;5034416;28;20168;-72
2023/05/25 07:18:39;;;;;;;82.23;2.97;;;17.30;29.90;;;;;;5034397;28;20174;-72
2023/05/25 07:21:08;;;;;;;79.80;2.10;;;17.50;29.80;;;;;;5034540;28;20168;-72
2023/05/25 07:23:35;;;;;;;79.80;2.10;;;17.30;30.40;;;;;;5032727;28;20932;-72
2023/05/25 07:26:01;;;;;;;79.97;2.20;;;17.30;30.00;;;;;;5034452;28;20409;-72
2023/05/25 07:28:26;;;;;;;80.27;2.43;;;17.60;29.70;;;;;;5032752;28;20506;-72
2023/05/25 07:30:52;;;;;;;80.20;2.50;;;17.20;30.50;;;;;;5034240;28;20169;-72
2023/05/25 07:33:18;;;;;;;79.90;2.10;;;16.90;30.60;;;;;;5032657;28;20180;-72
2023/05/25 07:35:43;;;;;;;80.17;2.30;;;16.90;32.20;;;;;;5033770;28;20197;-72
2023/05/25 07:38:09;;;;;;;80.67;2.67;;;17.30;30.70;;;;;;5032936;28;20179;-72
2023/05/25 07:40:35;;;;;;;80.03;2.20;;;17.40;30.50;;;;;;5034206;28;20174;-72
2023/05/25 07:43:01;;;;;;;83.47;2.77;;;17.60;31.30;;;;;;5033472;28;20195;-71
2023/05/25 07:45:26;;;;;;;79.80;2.07;;;18.00;30.10;;;;;;5034043;28;20435;-72
2023/05/25 07:47:52;;;;;;;88.63;4.23;;;18.40;29.60;;;;;;5033785;28;20169;-73
2023/05/25 07:50:18;;;;;;;80.63;2.30;;;18.40;29.90;;;;;;5032880;28;20177;-72
2023/05/25 07:52:44;;;;;;;81.07;2.80;;;18.40;29.90;;;;;;5033177;28;20259;-72
2023/05/25 07:55:09;;;;;;;79.87;2.13;;;18.40;29.50;;;;;;5034448;28;20258;-72
2023/05/25 07:57:35;;;;;;;80.67;2.50;;;18.50;29.20;;;;;;5033947;28;20184;-72
2023/05/25 08:00:01;;;;;;;80.23;2.40;;;18.70;29.80;;;;;;5034831;28;20260;-72
2023/05/25 08:02:27;;;;;;;81.23;2.43;;;18.80;29.50;;;;;;5033528;28;20290;-72
2023/05/25 08:04:53;;;;;;;79.70;2.00;;;19.00;28.90;;;;;;5033275;28;20263;-72
2023/05/25 08:07:19;;;;;;;79.83;2.23;;;19.10;28.90;;;;;;5034046;28;20658;-72
2023/05/25 08:09:45;;;;;;;80.67;2.60;;;18.70;29.20;;;;;;5033666;28;20417;-72
2023/05/25 08:12:11;;;;;;;80.33;2.67;;;18.50;30.50;;;;;;5033485;28;20412;-73
2023/05/25 08:14:37;;;;;;;80.80;3.03;;;18.70;30.00;;;;;;5032729;28;20445;-72
2023/05/25 08:17:03;;;;;;;80.27;2.30;;;19.10;29.60;;;;;;5033593;28;20257;-72
2023/05/25 08:19:32;;;;;;;79.97;2.40;;;19.30;28.90;;;;;;5033940;28;20174;-72
2023/05/25 08:21:58;;;;;;;80.07;2.53;;;19.50;29.30;;;;;;5032899;28;20451;-72
2023/05/25 08:24:24;;;;;;;79.73;2.10;;;19.50;29.00;;;;;;5033688;28;21008;-72
2023/05/25 08:26:50;;;;;;;80.60;2.27;;;19.50;29.20;;;;;;5033312;28;20635;-72
2023/05/25 08:29:17;;;;;;;80.47;2.40;;;19.30;28.70;;;;;;5033542;28;20406;-72
2023/05/25 08:31:44;;;;;;;80.03;2.43;;;19.10;29.70;;;;;;5032857;28;20175;-72
2023/05/25 08:34:11;;;;;;;79.77;2.40;;;19.40;29.00;;;;;;5032093;28;20429;-72
2023/05/25 08:36:36;;;;;;;79.40;2.10;;;19.60;29.30;;;;;;5032994;28;20436;-72
2023/05/25 08:39:03;;;;;;;80.10;2.53;;;19.80;28.20;;;;;;5033436;28;20946;-72
2023/05/25 08:41:29;;;;;;;80.87;2.47;;;19.80;28.40;;;;;;5033021;28;20176;-73
2023/05/25 08:43:55;;;;;;;79.77;2.53;;;20.00;28.40;;;;;;5032861;28;20513;-72
2023/05/25 08:46:29;;;;;;;79.40;2.20;;;20.20;28.80;;;;;;5033123;28;20434;-72
2023/05/25 08:49:02;;;;;;;79.17;2.00;;;19.80;28.00;;;;;;5031871;28;20417;-72
2023/05/25 08:51:31;;;;;;;81.87;2.77;;;19.80;28.70;;;;;;5032850;28;20398;-73
2023/05/25 08:54:04;;;;;;;79.73;2.40;;;19.80;29.10;;;;;;5032194;28;20793;-72
2023/05/25 08:56:33;;;;;;;79.37;2.30;;;20.00;28.80;;;;;;5033153;28;20433;-72
2023/05/25 08:59:14;;;;;;;79.20;2.03;;;20.30;29.00;;;;;;5031587;28;20415;-72
2023/05/25 09:01:45;;;;;;;80.27;2.70;;;20.40;28.60;;;;;;5032240;28;20403;-72
2023/05/25 09:04:12;;;;;;;79.13;2.23;;;20.70;27.70;;;;;;5030221;28;21273;-73
2023/05/25 09:06:38;;;;;;;80.00;2.60;;;20.80;28.20;;;;;;5031109;28;20470;-72
2023/05/25 09:09:04;;;;;;;88.37;2.80;;;20.30;28.10;;;;;;5030952;28;20511;-72
2023/05/25 09:11:31;;;;;;;79.10;2.40;;;20.20;27.80;;;;;;5030933;28;20856;-72
2023/05/25 09:13:57;;;;;;;79.80;2.53;;;20.60;29.00;;;;;;5031591;28;20462;-73
2023/05/25 09:16:25;;;;;;;79.27;2.50;;;20.80;28.30;;;;;;5032206;28;20414;-72
2023/05/25 09:18:50;;;;;;;78.97;2.33;;;21.20;28.20;;;;;;5032543;28;20443;-74
2023/05/25 09:21:16;;;;;;;92.83;4.23;;;21.00;28.00;;;;;;5032551;28;20436;-74
2023/05/25 09:23:42;;;;;;;79.00;2.37;;;21.20;27.50;;;;;;5031473;28;20282;-73
2023/05/25 09:26:08;;;;;;;79.63;2.57;;;21.40;28.20;;;;;;5030811;28;20180;-72
2023/05/25 09:28:34;;;;;;;79.90;2.50;;;21.20;28.00;;;;;;5030616;28;20182;-73
2023/05/25 09:31:00;;;;;;;79.47;2.60;;;21.50;27.80;;;;;;5032492;28;20484;-72
2023/05/25 09:33:26;;;;;;;79.07;2.60;;;21.20;29.20;;;;;;5031011;28;20413;-72
2023/05/25 09:35:51;;;;;;;78.77;2.30;;;21.30;29.00;;;;;;5030394;28;20486;-73
2023/05/25 09:38:18;;;;;;;80.77;2.50;;;21.50;28.40;;;;;;5030319;28;20489;-73
2023/05/25 09:40:44;;;;;;;79.43;2.60;;;21.50;27.10;;;;;;5031580;28;20171;-73
2023/05/25 09:43:11;;;;;;;78.63;2.30;;;21.50;27.90;;;;;;5030989;28;20460;-73
2023/05/25 09:45:37;;;;;;;78.93;2.50;;;22.10;28.30;;;;;;5030187;28;21012;-73
2023/05/25 09:48:05;;;;;;;81.67;3.80;;;22.00;26.90;;;;;;5031316;28;20415;-73
2023/05/25 09:50:31;;;;;;;79.00;2.50;;;22.10;27.00;;;;;;5030140;28;20663;-74
2023/05/25 09:53:01;;;;;;;79.17;2.60;;;22.30;27.00;;;;;;5030898;28;20581;-73
2023/05/25 09:55:30;;;;;;;78.83;2.20;;;22.50;26.50;;;;;;5031028;28;20447;-74
2023/05/25 09:57:56;;;;;;;78.90;2.53;;;22.50;26.10;;;;;;5030272;28;20414;-74
2023/05/25 10:00:25;;;;;;;79.00;2.37;;;21.90;27.30;;;;;;5031246;28;20408;-74
2023/05/25 10:02:51;;;;;;;80.83;2.97;;;22.50;27.40;;;;;;5029426;28;20465;-74
2023/05/25 10:05:17;;;;;;;80.97;3.03;;;23.10;27.10;;;;;;5031197;28;20505;-74
2023/05/25 10:07:47;;;;;;;79.37;2.90;;;22.90;25.90;;;;;;5031294;28;20415;-74
2023/05/25 10:10:14;;;;;;;78.70;2.53;;;22.70;27.00;;;;;;5031375;28;20176;-73
2023/05/25 10:12:41;;;;;;;78.57;2.40;;;22.70;26.60;;;;;;5030338;28;20416;-74
2023/05/25 10:15:09;;;;;;;79.17;2.80;;;22.60;26.00;;;;;;5031209;28;20529;-73
2023/05/25 10:17:44;;;;;;;78.20;2.30;;;22.60;27.40;;;;;;5031407;28;20418;-74
2023/05/25 10:20:12;;;;;;;81.57;2.50;;;22.80;27.20;;;;;;5031380;28;20407;-74
2023/05/25 10:23:09;;;;;;;80.67;3.70;;;23.20;26.50;;;;;;5030554;28;20819;-73
2023/05/25 10:25:45;;;;;;;79.40;2.93;;;23.20;26.00;;;;;;5030940;28;20434;-71
2023/05/25 10:28:26;;;;;;;83.30;2.93;;;23.40;25.80;;;;;;5031138;28;20399;-74
2023/05/25 10:30:54;;;;;;;78.80;2.57;;;23.80;25.90;;;;;;5031103;28;20400;-74
2023/05/25 10:33:20;;;;;;;78.73;2.30;;;24.10;25.40;;;;;;5030570;28;21044;-72
2023/05/25 10:35:48;;;;;;;78.87;2.50;;;23.90;25.20;;;;;;5030897;28;20453;-71
2023/05/25 10:38:14;;;;;;;79.27;2.67;;;23.50;25.00;;;;;;5030860;28;20905;-72
2023/05/25 10:40:39;;;;;;;78.77;2.53;;;23.70;26.30;;;;;;5030946;28;20530;-72
2023/05/25 10:43:05;;;;;;;79.10;2.63;;;24.00;25.40;;;;;;5029133;28;20457;-72
2023/05/25 10:45:32;;;;;;;79.97;2.80;;;23.80;24.90;;;;;;5030947;28;20273;-72
2023/05/25 10:47:57;;;;;;;79.20;2.63;;;24.00;25.40;;;;;;5030662;28;20846;-72
2023/05/25 10:50:25;;;;;;;79.80;2.83;;;23.80;25.90;;;;;;5030906;28;20493;-72
2023/05/25 10:53:00;;;;;;;79.63;2.60;;;24.00;25.10;;;;;;5030186;28;20176;-72
2023/05/25 10:55:30;;;;;;;79.40;2.57;;;23.90;25.10;;;;;;5030847;28;20448;-73
2023/05/25 10:58:12;;;;;;;79.43;2.40;;;24.00;25.50;;;;;;5030856;28;20394;-72
2023/05/25 11:00:39;;;;;;;79.77;2.90;;;24.20;24.80;;;;;;5030911;28;20409;-72
2023/05/25 11:03:05;;;;;;;80.63;2.67;;;23.90;25.70;;;;;;5030013;28;20487;-72
2023/05/25 11:05:38;;;;;;;79.23;2.60;;;24.30;25.50;;;;;;5030656;28;20446;-71
2023/05/25 11:08:10;;;;;;;79.47;2.73;;;24.70;24.10;;;;;;5032021;28;20778;-72
2023/05/25 11:10:47;;;;;;;79.70;2.80;;;24.50;24.10;;;;;;5034396;28;20838;-71
2023/05/25 11:13:43;;;;;;;79.37;2.60;;;24.50;24.40;;;;;;5033615;28;20501;-71
2023/05/25 11:16:17;;;;;;;80.70;2.80;;;25.00;25.30;;;;;;5033044;28;20438;-72
2023/05/25 11:18:45;;;;;;;81.87;2.83;;;25.20;24.80;;;;;;5034148;28;20441;-71
2023/05/25 11:21:22;;;;;;;79.93;2.60;;;25.00;24.00;;;;;;5034171;28;20410;-71
2023/05/25 11:24:05;;;;;;;79.57;2.60;;;24.50;25.00;;;;;;5033229;28;20466;-71
2023/05/25 11:26:35;;;;;;;79.83;2.80;;;24.40;25.10;;;;;;5035453;28;20410;-71
2023/05/25 11:29:11;;;;;;;80.30;2.70;;;24.90;24.50;;;;;;5034137;28;20910;-71
2023/05/25 11:31:38;;;;;;;79.73;2.40;;;25.10;24.90;;;;;;5034350;28;20426;-71
2023/05/25 11:34:04;;;;;;;79.37;2.20;;;25.30;24.70;;;;;;5034825;28;20434;-71
2023/05/25 11:36:32;;;;;;;79.63;2.30;;;24.90;24.90;;;;;;5034247;28;20422;-71
2023/05/25 11:39:06;;;;;;;79.97;2.63;;;24.90;24.60;;;;;;5034745;28;20476;-71
2023/05/25 11:41:31;;;;;;;79.37;2.33;;;25.00;25.50;;;;;;5035330;28;20872;-72
2023/05/25 11:44:04;;;;;;;81.87;2.40;;;24.90;25.00;;;;;;5032891;28;20446;-72
2023/05/25 11:46:31;;;;;;;79.57;2.40;;;24.50;24.80;;;;;;5034982;28;20174;-71
2023/05/25 11:48:58;;;;;;;79.90;2.40;;;24.60;25.80;;;;;;5035820;28;20407;-71
2023/05/25 11:51:27;;;;;;;79.30;2.50;;;24.40;26.40;;;;;;5036342;28;20422;-71
2023/05/25 11:53:53;;;;;;;81.87;2.97;;;24.80;24.40;;;;;;5040076;28;20473;-72
2023/05/25 11:56:19;;;;;;;80.70;2.90;;;24.70;25.60;;;;;;5076701;28;20409;-73
2023/05/25 11:58:49;;;;;;;78.60;2.07;;;24.60;25.20;;;;;;5075766;28;20405;-72
2023/05/25 12:01:24;;;;;;;79.73;2.63;;;24.70;24.90;;;;;;5076277;28;20439;-72
2023/05/25 12:03:55;;;;;;;80.87;2.37;;;24.90;25.50;;;;;;5075556;28;20467;-72
2023/05/25 12:06:28;;;;;;;82.33;2.80;;;25.20;24.30;;;;;;5075050;28;20420;-71
2023/05/25 12:08:54;;;;;;;79.50;2.80;;;25.30;23.90;;;;;;5075990;28;20413;-72
2023/05/25 12:11:33;;;;;;;79.33;2.40;;;25.00;23.90;;;;;;5075518;28;20413;-72
2023/05/25 12:14:02;;;;;;;79.20;2.50;;;24.80;24.10;;;;;;5075645;28;20927;-72
2023/05/25 12:16:29;;;;;;;85.23;2.80;;;25.30;25.10;;;;;;5075855;28;20409;-72
2023/05/25 12:18:56;;;;;;;79.70;2.70;;;24.50;23.40;;;;;;5074781;28;20405;-71
2023/05/25 12:21:23;;;;;;;79.53;2.20;;;26.10;23.80;;;;;;5074645;28;20500;-71
2023/05/25 12:23:49;;;;;;;81.57;2.50;;;26.00;24.40;;;;;;5073759;28;20457;-72
2023/05/25 12:26:17;;;;;;;79.57;2.60;;;25.80;23.10;;;;;;5074785;28;20412;-71
2023/05/25 12:29:05;;;;;;;80.20;2.57;;;25.40;24.40;;;;;;5075399;28;20405;-71
2023/05/25 12:31:33;;;;;;;80.47;2.70;;;25.60;24.00;;;;;;5074417;28;20416;-71
2023/05/25 12:34:02;;;;;;;80.43;2.60;;;25.60;23.90;;;;;;5073593;28;20478;-71
2023/05/25 12:36:51;;;;;;;79.80;2.30;;;25.80;23.80;;;;;;5075787;28;20405;-73
2023/05/25 12:39:38;;;;;;;79.90;2.20;;;26.30;23.50;;;;;;5075885;28;20402;-72